sensor_id;sensor_type;location;lat;lon;timestamp;P1;durP1;ratioP1;P2;durP2;ratioP2
1879;SDS011;49285;49.002;8.390;2022-11-20T00:02:14;16.80;;;12.73;;
1879;SDS011;49285;49.002;8.390;2022-11-20T00:04:40;18.27;;;11.60;;
1879;SDS011;49285;49.002;8.390;2022-11-20T00:07:06;15.90;;;11.97;;
1879;SDS011;49285;49.002;8.390;2022-11-20T00:09:31;18.00;;;10.90;;
1879;SDS011;49285;49.002;8.390;2022-11-20T00:11:57;19.43;;;11.83;;
1879;SDS011;49285;49.002;8.390;2022-11-20T00:14:22;16.73;;;10.80;;
1879;SDS011;49285;49.002;8.390;2022-11-20T00:16:48;16.20;;;11.23;;
1879;SDS011;49285;49.002;8.390;2022-11-20T00:19:13;14.70;;;11.30;;
1879;SDS011;49285;49.002;8.390;2022-11-20T00:21:39;15.70;;;9.73;;
1879;SDS011;49285;49.002;8.390;2022-11-20T00:24:04;13.37;;;9.97;;
1879;SDS011;49285;49.002;8.390;2022-11-20T00:26:30;14.67;;;11.10;;
1879;SDS011;49285;49.002;8.390;2022-11-20T00:28:58;13.93;;;10.67;;
1879;SDS011;49285;49.002;8.390;2022-11-20T00:31:25;13.97;;;10.23;;
1879;SDS011;49285;49.002;8.390;2022-11-20T00:33:51;16.07;;;10.77;;
1879;SDS011;49285;49.002;8.390;2022-11-20T00:36:26;15.57;;;11.40;;
1879;SDS011;49285;49.002;8.390;2022-11-20T00:38:57;16.30;;;11.80;;
1879;SDS011;49285;49.002;8.390;2022-11-20T00:41:23;15.50;;;11.13;;
1879;SDS011;49285;49.002;8.390;2022-11-20T00:43:54;16.47;;;10.93;;
1879;SDS011;49285;49.002;8.390;2022-11-20T00:46:24;15.47;;;11.13;;
1879;SDS011;49285;49.002;8.390;2022-11-20T00:48:51;16.33;;;11.23;;
1879;SDS011;49285;49.002;8.390;2022-11-20T00:51:18;14.63;;;10.90;;
1879;SDS011;49285;49.002;8.390;2022-11-20T00:53:45;16.07;;;11.00;;
1879;SDS011;49285;49.002;8.390;2022-11-20T00:56:12;13.77;;;10.50;;
1879;SDS011;49285;49.002;8.390;2022-11-20T00:58:40;14.67;;;9.83;;
1879;SDS011;49285;49.002;8.390;2022-11-20T01:01:11;12.13;;;9.20;;
1879;SDS011;49285;49.002;8.390;2022-11-20T01:03:56;15.30;;;10.50;;
1879;SDS011;49285;49.002;8.390;2022-11-20T01:06:25;15.00;;;11.00;;
1879;SDS011;49285;49.002;8.390;2022-11-20T01:08:59;14.20;;;10.00;;
1879;SDS011;49285;49.002;8.390;2022-11-20T01:11:27;13.53;;;10.13;;
1879;SDS011;49285;49.002;8.390;2022-11-20T01:13:55;13.50;;;10.60;;
1879;SDS011;49285;49.002;8.390;2022-11-20T01:16:23;15.00;;;10.43;;
1879;SDS011;49285;49.002;8.390;2022-11-20T01:18:51;12.33;;;9.87;;
1879;SDS011;49285;49.002;8.390;2022-11-20T01:21:22;12.27;;;9.77;;
1879;SDS011;49285;49.002;8.390;2022-11-20T01:23:49;14.33;;;10.77;;
1879;SDS011;49285;49.002;8.390;2022-11-20T01:26:20;15.33;;;11.43;;
1879;SDS011;49285;49.002;8.390;2022-11-20T01:28:50;15.83;;;10.53;;
1879;SDS011;49285;49.002;8.390;2022-11-20T01:33:43;13.43;;;10.67;;
1879;SDS011;49285;49.002;8.390;2022-11-20T01:36:10;12.37;;;9.73;;
1879;SDS011;49285;49.002;8.390;2022-11-20T01:38:36;12.63;;;9.83;;
1879;SDS011;49285;49.002;8.390;2022-11-20T01:41:02;15.70;;;9.97;;
1879;SDS011;49285;49.002;8.390;2022-11-20T01:43:28;14.90;;;10.30;;
1879;SDS011;49285;49.002;8.390;2022-11-20T01:45:56;15.20;;;9.70;;
1879;SDS011;49285;49.002;8.390;2022-11-20T01:48:33;13.63;;;10.07;;
1879;SDS011;49285;49.002;8.390;2022-11-20T01:51:10;14.07;;;10.97;;
1879;SDS011;49285;49.002;8.390;2022-11-20T01:53:41;13.13;;;9.03;;
1879;SDS011;49285;49.002;8.390;2022-11-20T01:56:08;12.80;;;10.07;;
1879;SDS011;49285;49.002;8.390;2022-11-20T01:58:37;12.03;;;9.03;;
1879;SDS011;49285;49.002;8.390;2022-11-20T02:01:07;12.00;;;9.20;;
1879;SDS011;49285;49.002;8.390;2022-11-20T02:03:32;11.03;;;8.80;;
1879;SDS011;49285;49.002;8.390;2022-11-20T02:08:44;9.83;;;8.40;;
1879;SDS011;49285;49.002;8.390;2022-11-20T02:11:10;12.20;;;9.87;;
1879;SDS011;49285;49.002;8.390;2022-11-20T02:13:37;11.80;;;9.23;;
1879;SDS011;49285;49.002;8.390;2022-11-20T02:16:29;10.27;;;8.40;;
1879;SDS011;49285;49.002;8.390;2022-11-20T02:18:58;12.53;;;9.00;;
1879;SDS011;49285;49.002;8.390;2022-11-20T02:26:28;11.70;;;8.60;;
1879;SDS011;49285;49.002;8.390;2022-11-20T02:28:55;10.30;;;8.10;;
1879;SDS011;49285;49.002;8.390;2022-11-20T02:31:21;13.73;;;7.90;;
1879;SDS011;49285;49.002;8.390;2022-11-20T02:33:47;10.20;;;7.03;;
1879;SDS011;49285;49.002;8.390;2022-11-20T02:36:14;8.47;;;6.90;;
1879;SDS011;49285;49.002;8.390;2022-11-20T02:38:41;13.33;;;11.03;;
1879;SDS011;49285;49.002;8.390;2022-11-20T02:41:08;10.00;;;8.10;;
1879;SDS011;49285;49.002;8.390;2022-11-20T02:43:33;10.47;;;6.93;;
1879;SDS011;49285;49.002;8.390;2022-11-20T02:45:59;8.60;;;7.33;;
1879;SDS011;49285;49.002;8.390;2022-11-20T02:48:24;8.87;;;6.87;;
1879;SDS011;49285;49.002;8.390;2022-11-20T02:50:50;9.17;;;6.50;;
1879;SDS011;49285;49.002;8.390;2022-11-20T02:53:15;12.50;;;7.23;;
1879;SDS011;49285;49.002;8.390;2022-11-20T02:55:41;8.20;;;6.63;;
1879;SDS011;49285;49.002;8.390;2022-11-20T02:58:06;10.10;;;7.80;;
1879;SDS011;49285;49.002;8.390;2022-11-20T03:00:32;13.00;;;7.13;;
1879;SDS011;49285;49.002;8.390;2022-11-20T03:02:58;9.17;;;7.57;;
1879;SDS011;49285;49.002;8.390;2022-11-20T03:05:24;7.63;;;6.10;;
1879;SDS011;49285;49.002;8.390;2022-11-20T03:07:49;10.47;;;7.30;;
1879;SDS011;49285;49.002;8.390;2022-11-20T03:10:15;9.80;;;6.90;;
1879;SDS011;49285;49.002;8.390;2022-11-20T03:12:40;9.33;;;6.83;;
1879;SDS011;49285;49.002;8.390;2022-11-20T03:15:06;8.70;;;6.20;;
1879;SDS011;49285;49.002;8.390;2022-11-20T03:17:32;7.70;;;6.23;;
1879;SDS011;49285;49.002;8.390;2022-11-20T03:19:57;6.30;;;5.30;;
1879;SDS011;49285;49.002;8.390;2022-11-20T03:22:23;12.67;;;7.17;;
1879;SDS011;49285;49.002;8.390;2022-11-20T03:24:49;10.17;;;7.20;;
1879;SDS011;49285;49.002;8.390;2022-11-20T03:27:14;8.70;;;6.53;;
1879;SDS011;49285;49.002;8.390;2022-11-20T03:29:40;8.30;;;6.10;;
1879;SDS011;49285;49.002;8.390;2022-11-20T03:32:05;6.10;;;5.30;;
1879;SDS011;49285;49.002;8.390;2022-11-20T03:34:31;7.60;;;6.00;;
1879;SDS011;49285;49.002;8.390;2022-11-20T03:36:56;8.33;;;5.97;;
1879;SDS011;49285;49.002;8.390;2022-11-20T03:39:22;7.50;;;6.37;;
1879;SDS011;49285;49.002;8.390;2022-11-20T03:41:47;6.90;;;6.20;;
1879;SDS011;49285;49.002;8.390;2022-11-20T03:44:13;9.90;;;6.27;;
1879;SDS011;49285;49.002;8.390;2022-11-20T03:46:38;8.50;;;6.20;;
1879;SDS011;49285;49.002;8.390;2022-11-20T03:49:04;7.47;;;5.83;;
1879;SDS011;49285;49.002;8.390;2022-11-20T03:51:31;8.00;;;6.23;;
1879;SDS011;49285;49.002;8.390;2022-11-20T03:53:58;8.80;;;5.77;;
1879;SDS011;49285;49.002;8.390;2022-11-20T03:56:26;6.60;;;5.60;;
1879;SDS011;49285;49.002;8.390;2022-11-20T03:58:54;6.60;;;4.87;;
1879;SDS011;49285;49.002;8.390;2022-11-20T04:01:27;7.43;;;5.17;;
1879;SDS011;49285;49.002;8.390;2022-11-20T04:03:56;6.80;;;6.00;;
1879;SDS011;49285;49.002;8.390;2022-11-20T04:06:23;6.50;;;5.70;;
1879;SDS011;49285;49.002;8.390;2022-11-20T04:08:50;7.20;;;5.30;;
1879;SDS011;49285;49.002;8.390;2022-11-20T04:11:20;9.60;;;5.70;;
1879;SDS011;49285;49.002;8.390;2022-11-20T04:13:54;7.50;;;5.50;;
1879;SDS011;49285;49.002;8.390;2022-11-20T04:16:21;9.07;;;5.50;;
1879;SDS011;49285;49.002;8.390;2022-11-20T04:18:51;8.30;;;5.47;;
1879;SDS011;49285;49.002;8.390;2022-11-20T04:21:20;10.10;;;5.40;;
1879;SDS011;49285;49.002;8.390;2022-11-20T04:23:46;7.97;;;5.93;;
1879;SDS011;49285;49.002;8.390;2022-11-20T04:26:12;5.73;;;5.13;;
1879;SDS011;49285;49.002;8.390;2022-11-20T04:28:38;6.50;;;4.93;;
1879;SDS011;49285;49.002;8.390;2022-11-20T04:31:05;6.50;;;5.23;;
1879;SDS011;49285;49.002;8.390;2022-11-20T04:33:38;7.47;;;5.60;;
1879;SDS011;49285;49.002;8.390;2022-11-20T04:36:09;7.70;;;5.60;;
1879;SDS011;49285;49.002;8.390;2022-11-20T04:38:39;5.83;;;5.13;;
1879;SDS011;49285;49.002;8.390;2022-11-20T04:41:06;6.60;;;5.70;;
1879;SDS011;49285;49.002;8.390;2022-11-20T04:43:33;6.53;;;5.10;;
1879;SDS011;49285;49.002;8.390;2022-11-20T04:45:59;6.90;;;5.47;;
1879;SDS011;49285;49.002;8.390;2022-11-20T04:48:26;8.67;;;5.70;;
1879;SDS011;49285;49.002;8.390;2022-11-20T04:50:52;8.67;;;5.43;;
1879;SDS011;49285;49.002;8.390;2022-11-20T04:53:18;8.27;;;5.60;;
1879;SDS011;49285;49.002;8.390;2022-11-20T04:55:44;7.20;;;5.80;;
1879;SDS011;49285;49.002;8.390;2022-11-20T04:58:10;7.43;;;6.00;;
1879;SDS011;49285;49.002;8.390;2022-11-20T05:00:35;13.60;;;5.50;;
1879;SDS011;49285;49.002;8.390;2022-11-20T05:03:01;7.30;;;5.37;;
1879;SDS011;49285;49.002;8.390;2022-11-20T05:05:26;8.93;;;6.00;;
1879;SDS011;49285;49.002;8.390;2022-11-20T05:07:52;8.07;;;5.60;;
1879;SDS011;49285;49.002;8.390;2022-11-20T05:10:18;7.70;;;5.50;;
1879;SDS011;49285;49.002;8.390;2022-11-20T05:12:43;5.80;;;5.07;;
1879;SDS011;49285;49.002;8.390;2022-11-20T05:15:09;6.30;;;5.17;;
1879;SDS011;49285;49.002;8.390;2022-11-20T05:17:34;8.90;;;6.10;;
1879;SDS011;49285;49.002;8.390;2022-11-20T05:20:00;8.23;;;5.03;;
1879;SDS011;49285;49.002;8.390;2022-11-20T05:22:25;6.70;;;4.83;;
1879;SDS011;49285;49.002;8.390;2022-11-20T05:24:51;8.60;;;5.13;;
1879;SDS011;49285;49.002;8.390;2022-11-20T05:27:17;10.87;;;6.00;;
1879;SDS011;49285;49.002;8.390;2022-11-20T05:29:43;8.20;;;5.07;;
1879;SDS011;49285;49.002;8.390;2022-11-20T05:32:08;8.57;;;7.10;;
1879;SDS011;49285;49.002;8.390;2022-11-20T05:34:34;7.67;;;6.30;;
1879;SDS011;49285;49.002;8.390;2022-11-20T05:37:01;6.70;;;5.07;;
1879;SDS011;49285;49.002;8.390;2022-11-20T05:39:27;5.60;;;4.20;;
1879;SDS011;49285;49.002;8.390;2022-11-20T05:41:53;6.30;;;4.90;;
1879;SDS011;49285;49.002;8.390;2022-11-20T05:44:37;6.30;;;5.10;;
1879;SDS011;49285;49.002;8.390;2022-11-20T05:47:03;5.80;;;4.40;;
1879;SDS011;49285;49.002;8.390;2022-11-20T05:49:29;9.03;;;5.40;;
1879;SDS011;49285;49.002;8.390;2022-11-20T05:51:54;5.87;;;4.40;;
1879;SDS011;49285;49.002;8.390;2022-11-20T05:54:20;6.80;;;4.47;;
1879;SDS011;49285;49.002;8.390;2022-11-20T05:56:45;6.00;;;4.23;;
1879;SDS011;49285;49.002;8.390;2022-11-20T05:59:11;6.10;;;4.80;;
1879;SDS011;49285;49.002;8.390;2022-11-20T06:01:36;5.50;;;4.40;;
1879;SDS011;49285;49.002;8.390;2022-11-20T06:04:02;7.97;;;4.63;;
1879;SDS011;49285;49.002;8.390;2022-11-20T06:06:27;5.00;;;3.97;;
1879;SDS011;49285;49.002;8.390;2022-11-20T06:08:54;5.13;;;4.17;;
1879;SDS011;49285;49.002;8.390;2022-11-20T06:11:20;8.60;;;4.73;;
1879;SDS011;49285;49.002;8.390;2022-11-20T06:13:46;5.43;;;3.83;;
1879;SDS011;49285;49.002;8.390;2022-11-20T06:16:13;5.97;;;4.10;;
1879;SDS011;49285;49.002;8.390;2022-11-20T06:18:40;6.43;;;3.80;;
1879;SDS011;49285;49.002;8.390;2022-11-20T06:21:09;3.77;;;3.37;;
1879;SDS011;49285;49.002;8.390;2022-11-20T06:23:37;8.30;;;4.57;;
1879;SDS011;49285;49.002;8.390;2022-11-20T06:26:04;5.07;;;3.50;;
1879;SDS011;49285;49.002;8.390;2022-11-20T06:28:34;5.87;;;3.70;;
1879;SDS011;49285;49.002;8.390;2022-11-20T06:31:00;4.80;;;3.53;;
1879;SDS011;49285;49.002;8.390;2022-11-20T06:33:26;5.93;;;4.07;;
1879;SDS011;49285;49.002;8.390;2022-11-20T06:35:51;5.50;;;4.87;;
1879;SDS011;49285;49.002;8.390;2022-11-20T06:38:17;5.80;;;3.90;;
1879;SDS011;49285;49.002;8.390;2022-11-20T06:40:43;6.30;;;4.20;;
1879;SDS011;49285;49.002;8.390;2022-11-20T06:43:11;4.50;;;3.57;;
1879;SDS011;49285;49.002;8.390;2022-11-20T06:45:37;5.23;;;4.10;;
1879;SDS011;49285;49.002;8.390;2022-11-20T06:48:02;4.73;;;4.20;;
1879;SDS011;49285;49.002;8.390;2022-11-20T06:50:29;5.17;;;3.83;;
1879;SDS011;49285;49.002;8.390;2022-11-20T06:52:54;5.07;;;3.67;;
1879;SDS011;49285;49.002;8.390;2022-11-20T06:55:20;4.90;;;4.00;;
1879;SDS011;49285;49.002;8.390;2022-11-20T06:57:45;5.17;;;4.33;;
1879;SDS011;49285;49.002;8.390;2022-11-20T07:00:11;5.87;;;3.77;;
1879;SDS011;49285;49.002;8.390;2022-11-20T07:02:37;5.13;;;4.20;;
1879;SDS011;49285;49.002;8.390;2022-11-20T07:05:03;4.27;;;3.60;;
1879;SDS011;49285;49.002;8.390;2022-11-20T07:07:28;5.23;;;3.90;;
1879;SDS011;49285;49.002;8.390;2022-11-20T07:09:54;4.70;;;3.60;;
1879;SDS011;49285;49.002;8.390;2022-11-20T07:12:19;4.40;;;3.53;;
1879;SDS011;49285;49.002;8.390;2022-11-20T07:14:45;4.83;;;3.73;;
1879;SDS011;49285;49.002;8.390;2022-11-20T07:17:11;4.13;;;3.60;;
1879;SDS011;49285;49.002;8.390;2022-11-20T07:19:36;4.73;;;4.03;;
1879;SDS011;49285;49.002;8.390;2022-11-20T07:22:02;4.90;;;4.00;;
1879;SDS011;49285;49.002;8.390;2022-11-20T07:24:28;5.87;;;3.90;;
1879;SDS011;49285;49.002;8.390;2022-11-20T07:26:54;6.10;;;3.77;;
1879;SDS011;49285;49.002;8.390;2022-11-20T07:29:19;4.60;;;3.60;;
1879;SDS011;49285;49.002;8.390;2022-11-20T07:31:45;6.43;;;4.30;;
1879;SDS011;49285;49.002;8.390;2022-11-20T07:34:10;3.87;;;3.37;;
1879;SDS011;49285;49.002;8.390;2022-11-20T07:36:36;8.60;;;5.40;;
1879;SDS011;49285;49.002;8.390;2022-11-20T07:39:01;4.87;;;3.83;;
1879;SDS011;49285;49.002;8.390;2022-11-20T07:41:27;5.10;;;4.00;;
1879;SDS011;49285;49.002;8.390;2022-11-20T07:43:53;3.97;;;3.43;;
1879;SDS011;49285;49.002;8.390;2022-11-20T07:46:19;4.37;;;3.80;;
1879;SDS011;49285;49.002;8.390;2022-11-20T07:48:44;7.50;;;4.30;;
1879;SDS011;49285;49.002;8.390;2022-11-20T07:51:10;5.20;;;3.20;;
1879;SDS011;49285;49.002;8.390;2022-11-20T07:53:36;4.83;;;3.90;;
1879;SDS011;49285;49.002;8.390;2022-11-20T07:56:02;5.70;;;3.83;;
1879;SDS011;49285;49.002;8.390;2022-11-20T07:58:31;5.20;;;4.00;;
1879;SDS011;49285;49.002;8.390;2022-11-20T08:01:03;7.43;;;4.80;;
1879;SDS011;49285;49.002;8.390;2022-11-20T08:03:29;6.63;;;4.53;;
1879;SDS011;49285;49.002;8.390;2022-11-20T08:05:57;6.10;;;4.37;;
1879;SDS011;49285;49.002;8.390;2022-11-20T08:08:25;6.37;;;4.53;;
1879;SDS011;49285;49.002;8.390;2022-11-20T08:10:50;4.90;;;3.90;;
1879;SDS011;49285;49.002;8.390;2022-11-20T08:13:16;6.80;;;5.00;;
1879;SDS011;49285;49.002;8.390;2022-11-20T08:16:00;6.57;;;4.70;;
1879;SDS011;49285;49.002;8.390;2022-11-20T08:18:26;6.33;;;4.23;;
1879;SDS011;49285;49.002;8.390;2022-11-20T08:20:51;4.63;;;3.77;;
1879;SDS011;49285;49.002;8.390;2022-11-20T08:23:17;5.53;;;4.10;;
1879;SDS011;49285;49.002;8.390;2022-11-20T08:25:42;4.70;;;4.20;;
1879;SDS011;49285;49.002;8.390;2022-11-20T08:28:09;5.73;;;4.40;;
1879;SDS011;49285;49.002;8.390;2022-11-20T08:30:35;7.43;;;4.60;;
1879;SDS011;49285;49.002;8.390;2022-11-20T08:33:03;5.70;;;4.23;;
1879;SDS011;49285;49.002;8.390;2022-11-20T08:35:36;7.60;;;5.00;;
1879;SDS011;49285;49.002;8.390;2022-11-20T08:38:03;6.30;;;4.53;;
1879;SDS011;49285;49.002;8.390;2022-11-20T08:40:30;5.13;;;3.97;;
1879;SDS011;49285;49.002;8.390;2022-11-20T08:42:56;5.40;;;4.30;;
1879;SDS011;49285;49.002;8.390;2022-11-20T08:45:22;4.93;;;3.67;;
1879;SDS011;49285;49.002;8.390;2022-11-20T08:47:47;5.57;;;4.60;;
1879;SDS011;49285;49.002;8.390;2022-11-20T08:50:14;5.00;;;4.50;;
1879;SDS011;49285;49.002;8.390;2022-11-20T08:52:41;6.13;;;4.50;;
1879;SDS011;49285;49.002;8.390;2022-11-20T08:55:07;5.73;;;3.60;;
1879;SDS011;49285;49.002;8.390;2022-11-20T08:57:33;8.30;;;4.37;;
1879;SDS011;49285;49.002;8.390;2022-11-20T09:00:00;6.07;;;3.80;;
1879;SDS011;49285;49.002;8.390;2022-11-20T09:02:27;5.13;;;4.43;;
1879;SDS011;49285;49.002;8.390;2022-11-20T09:04:53;6.30;;;3.97;;
1879;SDS011;49285;49.002;8.390;2022-11-20T09:07:19;4.80;;;4.10;;
1879;SDS011;49285;49.002;8.390;2022-11-20T09:09:44;4.30;;;3.77;;
1879;SDS011;49285;49.002;8.390;2022-11-20T09:12:10;10.07;;;4.53;;
1879;SDS011;49285;49.002;8.390;2022-11-20T09:14:36;5.73;;;4.20;;
1879;SDS011;49285;49.002;8.390;2022-11-20T09:17:01;7.00;;;4.87;;
1879;SDS011;49285;49.002;8.390;2022-11-20T09:19:27;4.53;;;3.83;;
1879;SDS011;49285;49.002;8.390;2022-11-20T09:21:52;4.70;;;4.20;;
1879;SDS011;49285;49.002;8.390;2022-11-20T09:24:18;4.83;;;4.03;;
1879;SDS011;49285;49.002;8.390;2022-11-20T09:26:45;7.30;;;4.33;;
1879;SDS011;49285;49.002;8.390;2022-11-20T09:29:11;7.40;;;4.43;;
1879;SDS011;49285;49.002;8.390;2022-11-20T09:31:36;4.30;;;3.80;;
1879;SDS011;49285;49.002;8.390;2022-11-20T09:34:02;6.00;;;3.60;;
1879;SDS011;49285;49.002;8.390;2022-11-20T09:36:27;7.10;;;4.40;;
1879;SDS011;49285;49.002;8.390;2022-11-20T09:38:53;5.40;;;3.83;;
1879;SDS011;49285;49.002;8.390;2022-11-20T09:47:17;6.90;;;4.70;;
1879;SDS011;49285;49.002;8.390;2022-11-20T09:55:19;8.33;;;4.80;;
1879;SDS011;49285;49.002;8.390;2022-11-20T09:57:46;7.43;;;5.03;;
1879;SDS011;49285;49.002;8.390;2022-11-20T10:00:15;4.93;;;4.43;;
1879;SDS011;49285;49.002;8.390;2022-11-20T10:05:27;6.00;;;4.57;;
1879;SDS011;49285;49.002;8.390;2022-11-20T10:08:13;6.63;;;5.27;;
1879;SDS011;49285;49.002;8.390;2022-11-20T10:10:52;5.63;;;5.00;;
1879;SDS011;49285;49.002;8.390;2022-11-20T10:18:58;8.13;;;4.87;;
1879;SDS011;49285;49.002;8.390;2022-11-20T10:32:42;5.23;;;4.30;;
1879;SDS011;49285;49.002;8.390;2022-11-20T10:35:16;5.03;;;4.43;;
1879;SDS011;49285;49.002;8.390;2022-11-20T10:38:02;8.20;;;4.67;;
1879;SDS011;49285;49.002;8.390;2022-11-20T10:40:37;7.20;;;5.00;;
1879;SDS011;49285;49.002;8.390;2022-11-20T10:43:13;7.67;;;4.63;;
1879;SDS011;49285;49.002;8.390;2022-11-20T10:48:24;7.47;;;4.90;;
1879;SDS011;49285;49.002;8.390;2022-11-20T10:56:44;5.57;;;4.57;;
1879;SDS011;49285;49.002;8.390;2022-11-20T11:02:14;5.20;;;3.90;;
1879;SDS011;49285;49.002;8.390;2022-11-20T11:04:46;5.43;;;4.10;;
1879;SDS011;49285;49.002;8.390;2022-11-20T11:07:19;6.87;;;4.50;;
1879;SDS011;49285;49.002;8.390;2022-11-20T11:09:54;8.67;;;4.40;;
1879;SDS011;49285;49.002;8.390;2022-11-20T11:12:21;4.97;;;4.33;;
1879;SDS011;49285;49.002;8.390;2022-11-20T11:14:50;4.10;;;3.13;;
1879;SDS011;49285;49.002;8.390;2022-11-20T11:17:30;5.30;;;4.00;;
1879;SDS011;49285;49.002;8.390;2022-11-20T11:20:02;7.60;;;3.63;;
1879;SDS011;49285;49.002;8.390;2022-11-20T11:22:49;5.50;;;2.83;;
1879;SDS011;49285;49.002;8.390;2022-11-20T11:25:21;4.70;;;3.13;;
1879;SDS011;49285;49.002;8.390;2022-11-20T11:27:53;6.43;;;3.80;;
1879;SDS011;49285;49.002;8.390;2022-11-20T11:30:21;7.00;;;3.20;;
1879;SDS011;49285;49.002;8.390;2022-11-20T11:33:09;7.00;;;2.77;;
1879;SDS011;49285;49.002;8.390;2022-11-20T11:35:57;4.53;;;3.27;;
1879;SDS011;49285;49.002;8.390;2022-11-20T11:38:35;7.07;;;4.03;;
1879;SDS011;49285;49.002;8.390;2022-11-20T11:41:07;6.97;;;3.37;;
1879;SDS011;49285;49.002;8.390;2022-11-20T11:43:37;3.47;;;2.80;;
1879;SDS011;49285;49.002;8.390;2022-11-20T11:51:33;4.37;;;2.50;;
1879;SDS011;49285;49.002;8.390;2022-11-20T11:54:05;6.37;;;3.27;;
1879;SDS011;49285;49.002;8.390;2022-11-20T11:56:43;5.87;;;3.67;;
1879;SDS011;49285;49.002;8.390;2022-11-20T11:59:11;9.30;;;3.30;;
1879;SDS011;49285;49.002;8.390;2022-11-20T12:10:04;6.93;;;3.00;;
1879;SDS011;49285;49.002;8.390;2022-11-20T12:12:38;4.13;;;2.70;;
1879;SDS011;49285;49.002;8.390;2022-11-20T12:15:10;3.30;;;2.37;;
1879;SDS011;49285;49.002;8.390;2022-11-20T12:17:37;5.17;;;2.40;;
1879;SDS011;49285;49.002;8.390;2022-11-20T12:20:05;4.93;;;2.50;;
1879;SDS011;49285;49.002;8.390;2022-11-20T12:25:27;4.40;;;2.27;;
1879;SDS011;49285;49.002;8.390;2022-11-20T12:28:15;2.90;;;2.13;;
1879;SDS011;49285;49.002;8.390;2022-11-20T12:41:27;3.40;;;1.97;;
1879;SDS011;49285;49.002;8.390;2022-11-20T12:47:38;6.53;;;2.50;;
1879;SDS011;49285;49.002;8.390;2022-11-20T12:52:57;7.37;;;2.00;;
1879;SDS011;49285;49.002;8.390;2022-11-20T12:56:03;3.10;;;2.20;;
1879;SDS011;49285;49.002;8.390;2022-11-20T12:58:48;5.20;;;2.43;;
1879;SDS011;49285;49.002;8.390;2022-11-20T13:01:40;4.30;;;2.60;;
1879;SDS011;49285;49.002;8.390;2022-11-20T13:06:49;3.77;;;2.43;;
1879;SDS011;49285;49.002;8.390;2022-11-20T13:09:16;6.43;;;2.53;;
1879;SDS011;49285;49.002;8.390;2022-11-20T13:11:48;3.30;;;2.57;;
1879;SDS011;49285;49.002;8.390;2022-11-20T13:14:43;4.73;;;2.93;;
1879;SDS011;49285;49.002;8.390;2022-11-20T13:19:57;4.73;;;2.10;;
1879;SDS011;49285;49.002;8.390;2022-11-20T13:22:42;2.80;;;2.40;;
1879;SDS011;49285;49.002;8.390;2022-11-20T13:25:32;4.03;;;2.50;;
1879;SDS011;49285;49.002;8.390;2022-11-20T13:28:00;2.50;;;1.77;;
1879;SDS011;49285;49.002;8.390;2022-11-20T13:30:29;3.27;;;2.00;;
1879;SDS011;49285;49.002;8.390;2022-11-20T13:32:57;5.70;;;1.97;;
1879;SDS011;49285;49.002;8.390;2022-11-20T13:35:37;2.20;;;1.90;;
1879;SDS011;49285;49.002;8.390;2022-11-20T13:38:14;3.87;;;1.87;;
1879;SDS011;49285;49.002;8.390;2022-11-20T13:40:56;2.50;;;1.90;;
1879;SDS011;49285;49.002;8.390;2022-11-20T13:43:27;4.90;;;1.90;;
1879;SDS011;49285;49.002;8.390;2022-11-20T13:46:00;4.23;;;2.97;;
1879;SDS011;49285;49.002;8.390;2022-11-20T13:48:31;3.80;;;1.83;;
1879;SDS011;49285;49.002;8.390;2022-11-20T13:51:02;3.53;;;1.70;;
1879;SDS011;49285;49.002;8.390;2022-11-20T14:02:10;5.50;;;2.07;;
1879;SDS011;49285;49.002;8.390;2022-11-20T14:04:42;3.73;;;2.00;;
1879;SDS011;49285;49.002;8.390;2022-11-20T14:07:13;4.70;;;2.83;;
1879;SDS011;49285;49.002;8.390;2022-11-20T14:09:48;3.10;;;2.30;;
1879;SDS011;49285;49.002;8.390;2022-11-20T14:12:16;7.20;;;2.57;;
1879;SDS011;49285;49.002;8.390;2022-11-20T14:14:51;6.40;;;2.40;;
1879;SDS011;49285;49.002;8.390;2022-11-20T14:19:46;3.43;;;1.90;;
1879;SDS011;49285;49.002;8.390;2022-11-20T14:24:47;4.70;;;2.03;;
1879;SDS011;49285;49.002;8.390;2022-11-20T14:27:26;4.47;;;1.80;;
1879;SDS011;49285;49.002;8.390;2022-11-20T14:29:52;7.30;;;2.10;;
1879;SDS011;49285;49.002;8.390;2022-11-20T14:32:18;3.43;;;2.20;;
1879;SDS011;49285;49.002;8.390;2022-11-20T14:34:47;3.13;;;1.90;;
1879;SDS011;49285;49.002;8.390;2022-11-20T14:37:19;5.37;;;2.03;;
1879;SDS011;49285;49.002;8.390;2022-11-20T14:39:48;6.27;;;3.20;;
1879;SDS011;49285;49.002;8.390;2022-11-20T14:42:18;3.37;;;1.97;;
1879;SDS011;49285;49.002;8.390;2022-11-20T14:44:46;4.07;;;2.10;;
1879;SDS011;49285;49.002;8.390;2022-11-20T14:47:15;4.67;;;2.20;;
1879;SDS011;49285;49.002;8.390;2022-11-20T14:49:44;3.60;;;1.90;;
1879;SDS011;49285;49.002;8.390;2022-11-20T14:52:15;6.40;;;2.93;;
1879;SDS011;49285;49.002;8.390;2022-11-20T14:54:58;4.47;;;2.70;;
1879;SDS011;49285;49.002;8.390;2022-11-20T15:00:18;3.43;;;2.20;;
1879;SDS011;49285;49.002;8.390;2022-11-20T15:02:48;5.80;;;2.10;;
1879;SDS011;49285;49.002;8.390;2022-11-20T15:05:15;3.83;;;2.13;;
1879;SDS011;49285;49.002;8.390;2022-11-20T15:07:43;3.90;;;2.60;;
1879;SDS011;49285;49.002;8.390;2022-11-20T15:10:12;2.50;;;1.90;;
1879;SDS011;49285;49.002;8.390;2022-11-20T15:12:50;3.70;;;2.07;;
1879;SDS011;49285;49.002;8.390;2022-11-20T15:15:29;6.23;;;2.50;;
1879;SDS011;49285;49.002;8.390;2022-11-20T15:18:05;3.93;;;2.47;;
1879;SDS011;49285;49.002;8.390;2022-11-20T15:20:35;3.37;;;1.90;;
1879;SDS011;49285;49.002;8.390;2022-11-20T15:23:01;5.27;;;2.23;;
1879;SDS011;49285;49.002;8.390;2022-11-20T15:25:27;2.63;;;1.90;;
1879;SDS011;49285;49.002;8.390;2022-11-20T15:27:54;4.30;;;3.20;;
1879;SDS011;49285;49.002;8.390;2022-11-20T15:30:21;7.23;;;3.10;;
1879;SDS011;49285;49.002;8.390;2022-11-20T15:32:47;4.80;;;2.80;;
1879;SDS011;49285;49.002;8.390;2022-11-20T15:35:14;4.80;;;2.60;;
1879;SDS011;49285;49.002;8.390;2022-11-20T15:37:40;4.37;;;2.50;;
1879;SDS011;49285;49.002;8.390;2022-11-20T15:40:06;6.53;;;2.70;;
1879;SDS011;49285;49.002;8.390;2022-11-20T15:42:34;3.77;;;2.23;;
1879;SDS011;49285;49.002;8.390;2022-11-20T15:44:59;4.00;;;1.97;;
1879;SDS011;49285;49.002;8.390;2022-11-20T15:47:29;8.03;;;3.83;;
1879;SDS011;49285;49.002;8.390;2022-11-20T15:49:58;2.97;;;2.37;;
1879;SDS011;49285;49.002;8.390;2022-11-20T15:52:23;2.60;;;2.10;;
1879;SDS011;49285;49.002;8.390;2022-11-20T15:54:49;3.17;;;1.80;;
1879;SDS011;49285;49.002;8.390;2022-11-20T15:57:15;3.90;;;2.37;;
1879;SDS011;49285;49.002;8.390;2022-11-20T15:59:40;2.87;;;2.03;;
1879;SDS011;49285;49.002;8.390;2022-11-20T16:02:13;4.07;;;2.40;;
1879;SDS011;49285;49.002;8.390;2022-11-20T16:04:40;2.60;;;2.10;;
1879;SDS011;49285;49.002;8.390;2022-11-20T16:07:06;3.43;;;2.60;;
1879;SDS011;49285;49.002;8.390;2022-11-20T16:09:32;3.97;;;2.70;;
1879;SDS011;49285;49.002;8.390;2022-11-20T16:11:58;4.10;;;2.87;;
1879;SDS011;49285;49.002;8.390;2022-11-20T16:14:24;3.17;;;2.30;;
1879;SDS011;49285;49.002;8.390;2022-11-20T16:17:09;3.83;;;2.33;;
1879;SDS011;49285;49.002;8.390;2022-11-20T16:19:35;4.30;;;2.30;;
1879;SDS011;49285;49.002;8.390;2022-11-20T16:22:00;9.27;;;4.13;;
1879;SDS011;49285;49.002;8.390;2022-11-20T16:24:26;3.33;;;2.03;;
1879;SDS011;49285;49.002;8.390;2022-11-20T16:26:53;5.90;;;2.23;;
1879;SDS011;49285;49.002;8.390;2022-11-20T16:29:19;3.73;;;2.67;;
1879;SDS011;49285;49.002;8.390;2022-11-20T16:31:45;3.27;;;2.30;;
1879;SDS011;49285;49.002;8.390;2022-11-20T16:34:12;3.30;;;2.50;;
1879;SDS011;49285;49.002;8.390;2022-11-20T16:36:40;2.80;;;2.03;;
1879;SDS011;49285;49.002;8.390;2022-11-20T16:39:07;3.97;;;2.23;;
1879;SDS011;49285;49.002;8.390;2022-11-20T16:41:33;2.63;;;2.20;;
1879;SDS011;49285;49.002;8.390;2022-11-20T16:44:00;2.97;;;2.63;;
1879;SDS011;49285;49.002;8.390;2022-11-20T16:46:28;3.27;;;2.80;;
1879;SDS011;49285;49.002;8.390;2022-11-20T16:51:25;5.10;;;2.80;;
1879;SDS011;49285;49.002;8.390;2022-11-20T16:53:52;5.63;;;2.80;;
1879;SDS011;49285;49.002;8.390;2022-11-20T16:56:20;4.70;;;3.47;;
1879;SDS011;49285;49.002;8.390;2022-11-20T16:58:48;4.00;;;2.80;;